Greater Binghamton/Edwin A Link field
KBGM : rendu visible

Aérodrome :











RETROUVEZ-NOUS SUR...

 
LOGIN :

S'inscrire | Disclaimer

   EN    FR    IT 

 









Légende :    VFR   VFR Marginal   IFR   IFR Intensif   IFR Très Intensif
Visi : 
Plafond : 
>= 8 km
>= 3000ft
5 à 8 km
1000 à 3000 ft
1500m à 5 km
500 à 1000 ft
800 à 1500m
200 à 500 ft
< 800m
< 200 ft
Symboles :   Orages  Brouillard  Fortes neiges  Fortes précipitations  Vent > 20 kt






- Altitude de l'aérodrome : 1636 ft
- Code IATA : BGM


KBGM - Greater Binghamton/Edwin A Link field

DERNIER METAR :
  • 110353Z AUTO 01008KT 8SM -RA FEW047 FEW055 OVC100 21/20 A2973 RMK AO2 SLP055 P0016 T02060200

METARs EXPIRÉS :
  • 110310Z AUTO 02008KT 5SM RA BR SCT010 SCT046 OVC085 21/20 A2975 RMK AO2 P0007 T02060200
  • 110253Z AUTO 02010KT 4SM +RA BR SCT008 BKN015 OVC080 21/20 A2976 RMK AO2 SLP065 P0023 60049 T02060200 58011
  • 110237Z AUTO 02009KT 5SM RA BR BKN013 BKN027 OVC075 21/20 A2977 RMK AO2 P0016 T02060200
  • 110215Z AUTO 02009KT 7SM -RA FEW012 BKN055 OVC100 21/20 A2978 RMK AO2 P0011 T02060200
  • 110203Z AUTO 03008KT 3SM -RA BR FEW005 BKN029 OVC095 21/20 A2978 RMK AO2 P0010 T02060200
  • 110153Z AUTO 04010KT 1 1/2SM +RA BR SCT005 BKN027 OVC038 21/20 A2979 RMK AO2 SLP075 P0016 T02060200

TAF KBGM
Valide du 11 à 00h jusqu'au 12 à 00h UTC


102326Z 1100/1124 10006KT 5SM -SHRA BR OVC035
FM110200 09005KT 3SM SHRA OVC018
FM110500 VRB03KT 2SM BR BKN005
TEMPO 1108/1112 1SM BR OVC004
FM111300 VRB03KT P6SM SCT019
FM112000 19009KT P6SM -SHRA BKN035
FIR KZNY / Amérique du Nord



MET'MAP, la Météo Aéronautique d'un coup d'oeil ! - Copyright ORBIFLY Décembre 2007 - Disclaimer

ORBIFLY MET'MAP TEAM :

Programmation & Développement : Alexandra Zaïnal
Sur une idée originale de : Baudouin d'Aumeries
Assistance à la programmation : Marc-Olivier Méhu
Soutien technique & logistique : Manuel Goepfert

Contact : metmap@orbifly.com




SOURCES & CREDITS :

   NOAA       Earth
Advisory